Terminal Aerodrome Forecast
Issued by NWS

Home | Current Version | Previous Version | Text Only | Print | Product List | Glossary Off
Versions: 1 2 3 4 5 6 7 8 9 10 11 12 13 14

417
FTUS43 KBIS 201123
TAFDIK
TAF
KDIK 201123Z 2012/2112 12006KT P6SM BKN200
     FM201800 15006KT P6SM BKN120
     FM210800 18012KT P6SM BKN200
     FM211100 22009KT P6SM SCT200=

USA.gov is the U.S. government's official web portal to all federal, state and local government web resources and services.